sensor_id;sensor_type;location;lat;lon;timestamp;P1;durP1;ratioP1;P2;durP2;ratioP2
72125;SDS011;59999;51.676;22.650;2023-07-29T00:00:29;19.33;;;8.48;;
72125;SDS011;59999;51.676;22.650;2023-07-29T00:03:15;16.50;;;8.35;;
72125;SDS011;59999;51.676;22.650;2023-07-29T00:05:41;17.13;;;9.10;;
72125;SDS011;59999;51.676;22.650;2023-07-29T00:08:07;17.20;;;9.13;;
72125;SDS011;59999;51.676;22.650;2023-07-29T00:10:34;15.88;;;9.40;;
72125;SDS011;59999;51.676;22.650;2023-07-29T00:13:02;15.33;;;7.80;;
72125;SDS011;59999;51.676;22.650;2023-07-29T00:15:29;15.48;;;8.65;;
72125;SDS011;59999;51.676;22.650;2023-07-29T00:17:54;15.45;;;8.10;;
72125;SDS011;59999;51.676;22.650;2023-07-29T00:20:20;17.65;;;8.80;;
72125;SDS011;59999;51.676;22.650;2023-07-29T00:22:46;15.70;;;8.97;;
72125;SDS011;59999;51.676;22.650;2023-07-29T00:25:15;18.48;;;9.48;;
72125;SDS011;59999;51.676;22.650;2023-07-29T00:27:42;18.23;;;9.75;;
72125;SDS011;59999;51.676;22.650;2023-07-29T00:30:08;19.05;;;9.65;;
72125;SDS011;59999;51.676;22.650;2023-07-29T00:32:34;18.10;;;9.93;;
72125;SDS011;59999;51.676;22.650;2023-07-29T00:35:01;19.13;;;9.98;;
72125;SDS011;59999;51.676;22.650;2023-07-29T00:37:30;18.02;;;9.48;;
72125;SDS011;59999;51.676;22.650;2023-07-29T00:39:56;21.88;;;9.65;;
72125;SDS011;59999;51.676;22.650;2023-07-29T00:42:23;17.38;;;9.27;;
72125;SDS011;59999;51.676;22.650;2023-07-29T00:44:50;20.47;;;9.80;;
72125;SDS011;59999;51.676;22.650;2023-07-29T00:47:16;19.63;;;10.65;;
72125;SDS011;59999;51.676;22.650;2023-07-29T00:49:45;21.05;;;10.30;;
72125;SDS011;59999;51.676;22.650;2023-07-29T00:52:11;20.63;;;9.97;;
72125;SDS011;59999;51.676;22.650;2023-07-29T00:54:40;20.73;;;11.30;;
72125;SDS011;59999;51.676;22.650;2023-07-29T00:57:08;22.13;;;10.90;;
72125;SDS011;59999;51.676;22.650;2023-07-29T00:59:35;20.60;;;11.35;;
72125;SDS011;59999;51.676;22.650;2023-07-29T01:02:02;22.85;;;11.00;;
72125;SDS011;59999;51.676;22.650;2023-07-29T01:04:28;21.30;;;11.10;;
72125;SDS011;59999;51.676;22.650;2023-07-29T01:15:26;22.05;;;11.63;;
72125;SDS011;59999;51.676;22.650;2023-07-29T01:18:00;27.73;;;11.90;;
72125;SDS011;59999;51.676;22.650;2023-07-29T01:20:33;23.25;;;12.45;;
72125;SDS011;59999;51.676;22.650;2023-07-29T01:23:04;25.92;;;12.45;;
72125;SDS011;59999;51.676;22.650;2023-07-29T01:25:30;23.47;;;12.77;;
72125;SDS011;59999;51.676;22.650;2023-07-29T01:27:56;25.60;;;12.32;;
72125;SDS011;59999;51.676;22.650;2023-07-29T01:30:25;24.45;;;12.35;;
72125;SDS011;59999;51.676;22.650;2023-07-29T01:38:23;23.10;;;11.82;;
72125;SDS011;59999;51.676;22.650;2023-07-29T01:40:54;25.48;;;13.55;;
72125;SDS011;59999;51.676;22.650;2023-07-29T01:43:21;24.48;;;13.07;;
72125;SDS011;59999;51.676;22.650;2023-07-29T01:45:50;28.17;;;13.38;;
72125;SDS011;59999;51.676;22.650;2023-07-29T01:48:16;23.53;;;12.60;;
72125;SDS011;59999;51.676;22.650;2023-07-29T01:50:43;26.92;;;13.13;;
72125;SDS011;59999;51.676;22.650;2023-07-29T01:53:08;22.33;;;13.05;;
72125;SDS011;59999;51.676;22.650;2023-07-29T01:55:34;26.93;;;12.87;;
72125;SDS011;59999;51.676;22.650;2023-07-29T01:58:00;24.92;;;12.25;;
72125;SDS011;59999;51.676;22.650;2023-07-29T02:00:26;24.20;;;12.18;;
72125;SDS011;59999;51.676;22.650;2023-07-29T02:02:52;22.27;;;12.27;;
72125;SDS011;59999;51.676;22.650;2023-07-29T02:05:18;22.38;;;12.57;;
72125;SDS011;59999;51.676;22.650;2023-07-29T02:07:44;22.73;;;11.77;;
72125;SDS011;59999;51.676;22.650;2023-07-29T02:10:10;24.10;;;11.87;;
72125;SDS011;59999;51.676;22.650;2023-07-29T02:12:35;21.17;;;10.75;;
72125;SDS011;59999;51.676;22.650;2023-07-29T02:15:02;20.27;;;11.63;;
72125;SDS011;59999;51.676;22.650;2023-07-29T02:17:28;22.77;;;11.95;;
72125;SDS011;59999;51.676;22.650;2023-07-29T02:19:54;20.63;;;11.38;;
72125;SDS011;59999;51.676;22.650;2023-07-29T02:22:19;23.60;;;12.37;;
72125;SDS011;59999;51.676;22.650;2023-07-29T02:24:46;21.58;;;11.15;;
72125;SDS011;59999;51.676;22.650;2023-07-29T02:27:11;28.03;;;12.47;;
72125;SDS011;59999;51.676;22.650;2023-07-29T02:29:37;24.85;;;11.65;;
72125;SDS011;59999;51.676;22.650;2023-07-29T02:32:03;21.45;;;11.43;;
72125;SDS011;59999;51.676;22.650;2023-07-29T02:34:29;22.67;;;11.83;;
72125;SDS011;59999;51.676;22.650;2023-07-29T02:36:55;25.65;;;12.63;;
72125;SDS011;59999;51.676;22.650;2023-07-29T02:39:22;22.88;;;12.55;;
72125;SDS011;59999;51.676;22.650;2023-07-29T02:41:48;20.67;;;11.80;;
72125;SDS011;59999;51.676;22.650;2023-07-29T02:44:15;24.88;;;11.93;;
72125;SDS011;59999;51.676;22.650;2023-07-29T02:46:41;25.03;;;13.83;;
72125;SDS011;59999;51.676;22.650;2023-07-29T02:49:07;24.17;;;12.13;;
72125;SDS011;59999;51.676;22.650;2023-07-29T02:51:33;25.65;;;12.10;;
72125;SDS011;59999;51.676;22.650;2023-07-29T02:53:59;23.40;;;11.57;;
72125;SDS011;59999;51.676;22.650;2023-07-29T02:56:25;23.57;;;11.73;;
72125;SDS011;59999;51.676;22.650;2023-07-29T02:58:51;24.02;;;11.18;;
72125;SDS011;59999;51.676;22.650;2023-07-29T03:01:17;24.90;;;11.95;;
72125;SDS011;59999;51.676;22.650;2023-07-29T03:03:43;21.83;;;11.60;;
72125;SDS011;59999;51.676;22.650;2023-07-29T03:06:09;23.52;;;11.02;;
72125;SDS011;59999;51.676;22.650;2023-07-29T03:08:36;22.48;;;11.07;;
72125;SDS011;59999;51.676;22.650;2023-07-29T03:11:35;24.23;;;11.93;;
72125;SDS011;59999;51.676;22.650;2023-07-29T03:13:54;20.95;;;10.93;;
72125;SDS011;59999;51.676;22.650;2023-07-29T03:16:20;21.23;;;11.70;;
72125;SDS011;59999;51.676;22.650;2023-07-29T03:18:46;22.88;;;10.63;;
72125;SDS011;59999;51.676;22.650;2023-07-29T03:21:13;24.30;;;10.57;;
72125;SDS011;59999;51.676;22.650;2023-07-29T03:23:40;19.83;;;10.50;;
72125;SDS011;59999;51.676;22.650;2023-07-29T03:26:05;21.75;;;10.25;;
72125;SDS011;59999;51.676;22.650;2023-07-29T03:28:37;23.55;;;11.35;;
72125;SDS011;59999;51.676;22.650;2023-07-29T03:31:06;22.17;;;10.83;;
72125;SDS011;59999;51.676;22.650;2023-07-29T03:33:33;23.13;;;10.93;;
72125;SDS011;59999;51.676;22.650;2023-07-29T03:35:59;22.65;;;11.05;;
72125;SDS011;59999;51.676;22.650;2023-07-29T03:38:25;22.20;;;10.55;;
72125;SDS011;59999;51.676;22.650;2023-07-29T03:40:51;21.50;;;10.83;;
72125;SDS011;59999;51.676;22.650;2023-07-29T03:43:17;21.17;;;11.15;;
72125;SDS011;59999;51.676;22.650;2023-07-29T03:45:43;21.13;;;10.38;;
72125;SDS011;59999;51.676;22.650;2023-07-29T03:48:09;21.20;;;11.63;;
72125;SDS011;59999;51.676;22.650;2023-07-29T03:50:36;22.10;;;11.33;;
72125;SDS011;59999;51.676;22.650;2023-07-29T03:53:03;23.02;;;11.25;;
72125;SDS011;59999;51.676;22.650;2023-07-29T03:55:29;19.52;;;9.98;;
72125;SDS011;59999;51.676;22.650;2023-07-29T03:57:58;20.17;;;9.88;;
72125;SDS011;59999;51.676;22.650;2023-07-29T04:00:25;24.33;;;10.63;;
72125;SDS011;59999;51.676;22.650;2023-07-29T04:02:51;22.10;;;11.20;;
72125;SDS011;59999;51.676;22.650;2023-07-29T04:05:17;20.42;;;10.90;;
72125;SDS011;59999;51.676;22.650;2023-07-29T04:07:43;23.00;;;10.70;;
72125;SDS011;59999;51.676;22.650;2023-07-29T04:10:09;20.87;;;10.57;;
72125;SDS011;59999;51.676;22.650;2023-07-29T04:12:35;20.05;;;11.02;;
72125;SDS011;59999;51.676;22.650;2023-07-29T04:15:01;19.05;;;10.20;;
72125;SDS011;59999;51.676;22.650;2023-07-29T04:17:28;21.08;;;10.73;;
72125;SDS011;59999;51.676;22.650;2023-07-29T04:19:53;21.00;;;10.47;;
72125;SDS011;59999;51.676;22.650;2023-07-29T04:22:19;21.27;;;9.65;;
72125;SDS011;59999;51.676;22.650;2023-07-29T04:24:46;19.52;;;9.98;;
72125;SDS011;59999;51.676;22.650;2023-07-29T04:27:12;18.27;;;9.80;;
72125;SDS011;59999;51.676;22.650;2023-07-29T04:29:38;18.33;;;9.25;;
72125;SDS011;59999;51.676;22.650;2023-07-29T04:32:04;16.25;;;9.52;;
72125;SDS011;59999;51.676;22.650;2023-07-29T04:34:30;18.65;;;9.30;;
72125;SDS011;59999;51.676;22.650;2023-07-29T04:36:57;18.67;;;9.63;;
72125;SDS011;59999;51.676;22.650;2023-07-29T04:39:23;20.92;;;9.60;;
72125;SDS011;59999;51.676;22.650;2023-07-29T04:41:49;15.25;;;8.85;;
72125;SDS011;59999;51.676;22.650;2023-07-29T04:44:15;17.15;;;9.20;;
72125;SDS011;59999;51.676;22.650;2023-07-29T04:46:41;15.27;;;8.63;;
72125;SDS011;59999;51.676;22.650;2023-07-29T04:49:06;14.30;;;8.40;;
72125;SDS011;59999;51.676;22.650;2023-07-29T04:51:32;17.70;;;9.48;;
72125;SDS011;59999;51.676;22.650;2023-07-29T04:53:58;16.37;;;8.53;;
72125;SDS011;59999;51.676;22.650;2023-07-29T04:56:25;15.07;;;8.63;;
72125;SDS011;59999;51.676;22.650;2023-07-29T04:58:51;17.00;;;9.70;;
72125;SDS011;59999;51.676;22.650;2023-07-29T05:01:17;14.38;;;8.18;;
72125;SDS011;59999;51.676;22.650;2023-07-29T05:03:42;16.30;;;9.13;;
72125;SDS011;59999;51.676;22.650;2023-07-29T05:06:09;17.10;;;9.32;;
72125;SDS011;59999;51.676;22.650;2023-07-29T05:08:35;17.23;;;9.00;;
72125;SDS011;59999;51.676;22.650;2023-07-29T05:11:02;15.88;;;8.73;;
72125;SDS011;59999;51.676;22.650;2023-07-29T05:13:27;21.50;;;9.73;;
72125;SDS011;59999;51.676;22.650;2023-07-29T05:15:53;16.20;;;9.00;;
72125;SDS011;59999;51.676;22.650;2023-07-29T05:18:19;15.37;;;8.37;;
72125;SDS011;59999;51.676;22.650;2023-07-29T05:20:46;15.18;;;7.93;;
72125;SDS011;59999;51.676;22.650;2023-07-29T05:23:12;14.38;;;7.75;;
72125;SDS011;59999;51.676;22.650;2023-07-29T05:25:39;14.02;;;7.95;;
72125;SDS011;59999;51.676;22.650;2023-07-29T05:28:05;14.73;;;7.87;;
72125;SDS011;59999;51.676;22.650;2023-07-29T05:30:32;13.38;;;7.70;;
72125;SDS011;59999;51.676;22.650;2023-07-29T05:32:59;12.63;;;7.57;;
72125;SDS011;59999;51.676;22.650;2023-07-29T05:35:26;14.93;;;8.20;;
72125;SDS011;59999;51.676;22.650;2023-07-29T05:37:52;13.17;;;7.27;;
72125;SDS011;59999;51.676;22.650;2023-07-29T05:40:18;12.93;;;7.13;;
72125;SDS011;59999;51.676;22.650;2023-07-29T05:42:44;13.60;;;7.53;;
72125;SDS011;59999;51.676;22.650;2023-07-29T05:45:11;13.40;;;7.47;;
72125;SDS011;59999;51.676;22.650;2023-07-29T05:47:37;12.90;;;7.70;;
72125;SDS011;59999;51.676;22.650;2023-07-29T05:50:03;14.00;;;7.50;;
72125;SDS011;59999;51.676;22.650;2023-07-29T05:52:30;14.13;;;8.13;;
72125;SDS011;59999;51.676;22.650;2023-07-29T05:54:56;14.07;;;8.30;;
72125;SDS011;59999;51.676;22.650;2023-07-29T05:57:22;13.67;;;8.30;;
72125;SDS011;59999;51.676;22.650;2023-07-29T05:59:48;13.85;;;8.23;;
72125;SDS011;59999;51.676;22.650;2023-07-29T06:02:14;13.80;;;7.63;;
72125;SDS011;59999;51.676;22.650;2023-07-29T06:04:40;13.52;;;8.05;;
72125;SDS011;59999;51.676;22.650;2023-07-29T06:07:06;13.37;;;8.47;;
72125;SDS011;59999;51.676;22.650;2023-07-29T06:09:32;13.95;;;8.13;;
72125;SDS011;59999;51.676;22.650;2023-07-29T06:11:58;13.98;;;7.65;;
72125;SDS011;59999;51.676;22.650;2023-07-29T06:14:24;12.73;;;7.83;;
72125;SDS011;59999;51.676;22.650;2023-07-29T06:16:50;12.50;;;7.65;;
72125;SDS011;59999;51.676;22.650;2023-07-29T06:19:16;13.25;;;8.57;;
72125;SDS011;59999;51.676;22.650;2023-07-29T06:21:43;13.90;;;7.53;;
72125;SDS011;59999;51.676;22.650;2023-07-29T06:24:09;13.97;;;8.07;;
72125;SDS011;59999;51.676;22.650;2023-07-29T06:26:35;14.48;;;7.85;;
72125;SDS011;59999;51.676;22.650;2023-07-29T06:29:01;11.63;;;7.40;;
72125;SDS011;59999;51.676;22.650;2023-07-29T06:31:27;12.57;;;7.47;;
72125;SDS011;59999;51.676;22.650;2023-07-29T06:33:53;11.60;;;7.22;;
72125;SDS011;59999;51.676;22.650;2023-07-29T06:36:20;12.25;;;7.03;;
72125;SDS011;59999;51.676;22.650;2023-07-29T06:38:46;10.95;;;6.53;;
72125;SDS011;59999;51.676;22.650;2023-07-29T06:41:11;10.03;;;5.83;;
72125;SDS011;59999;51.676;22.650;2023-07-29T06:43:37;10.73;;;6.20;;
72125;SDS011;59999;51.676;22.650;2023-07-29T06:46:03;10.60;;;6.35;;
72125;SDS011;59999;51.676;22.650;2023-07-29T06:48:29;10.50;;;5.75;;
72125;SDS011;59999;51.676;22.650;2023-07-29T06:50:55;10.47;;;6.53;;
72125;SDS011;59999;51.676;22.650;2023-07-29T06:53:29;10.80;;;6.50;;
72125;SDS011;59999;51.676;22.650;2023-07-29T06:55:55;9.80;;;5.70;;
72125;SDS011;59999;51.676;22.650;2023-07-29T06:58:21;10.32;;;6.32;;
72125;SDS011;59999;51.676;22.650;2023-07-29T07:00:47;10.80;;;6.40;;
72125;SDS011;59999;51.676;22.650;2023-07-29T07:03:13;11.40;;;6.55;;
72125;SDS011;59999;51.676;22.650;2023-07-29T07:05:39;10.13;;;6.20;;
72125;SDS011;59999;51.676;22.650;2023-07-29T07:08:05;9.97;;;6.00;;
72125;SDS011;59999;51.676;22.650;2023-07-29T07:10:30;8.02;;;4.50;;
72125;SDS011;59999;51.676;22.650;2023-07-29T07:12:57;8.48;;;4.70;;
72125;SDS011;59999;51.676;22.650;2023-07-29T07:15:23;8.77;;;5.47;;
72125;SDS011;59999;51.676;22.650;2023-07-29T07:17:49;7.75;;;5.10;;
72125;SDS011;59999;51.676;22.650;2023-07-29T07:20:16;9.15;;;4.78;;
72125;SDS011;59999;51.676;22.650;2023-07-29T07:22:42;9.68;;;4.90;;
72125;SDS011;59999;51.676;22.650;2023-07-29T07:25:08;6.40;;;3.70;;
72125;SDS011;59999;51.676;22.650;2023-07-29T07:27:34;5.93;;;3.40;;
72125;SDS011;59999;51.676;22.650;2023-07-29T07:30:00;6.38;;;3.85;;
72125;SDS011;59999;51.676;22.650;2023-07-29T07:32:26;6.43;;;3.65;;
72125;SDS011;59999;51.676;22.650;2023-07-29T07:34:51;8.00;;;4.20;;
72125;SDS011;59999;51.676;22.650;2023-07-29T07:37:17;6.95;;;3.50;;
72125;SDS011;59999;51.676;22.650;2023-07-29T07:39:43;7.55;;;3.60;;
72125;SDS011;59999;51.676;22.650;2023-07-29T07:42:09;6.37;;;3.47;;
72125;SDS011;59999;51.676;22.650;2023-07-29T07:44:35;9.20;;;4.10;;
72125;SDS011;59999;51.676;22.650;2023-07-29T07:47:01;6.15;;;3.65;;
72125;SDS011;59999;51.676;22.650;2023-07-29T07:49:27;6.00;;;3.40;;
72125;SDS011;59999;51.676;22.650;2023-07-29T07:51:53;6.03;;;3.40;;
72125;SDS011;59999;51.676;22.650;2023-07-29T07:54:19;5.38;;;2.90;;
72125;SDS011;59999;51.676;22.650;2023-07-29T07:56:45;6.45;;;3.33;;
72125;SDS011;59999;51.676;22.650;2023-07-29T07:59:10;7.43;;;3.30;;
72125;SDS011;59999;51.676;22.650;2023-07-29T08:01:38;6.70;;;3.63;;
72125;SDS011;59999;51.676;22.650;2023-07-29T08:04:04;6.95;;;3.88;;
72125;SDS011;59999;51.676;22.650;2023-07-29T08:06:31;8.63;;;3.58;;
72125;SDS011;59999;51.676;22.650;2023-07-29T08:08:57;7.67;;;3.93;;
72125;SDS011;59999;51.676;22.650;2023-07-29T08:11:23;7.28;;;3.53;;
72125;SDS011;59999;51.676;22.650;2023-07-29T08:13:49;5.60;;;2.72;;
72125;SDS011;59999;51.676;22.650;2023-07-29T08:16:15;5.33;;;2.50;;
72125;SDS011;59999;51.676;22.650;2023-07-29T08:18:41;5.30;;;2.80;;
72125;SDS011;59999;51.676;22.650;2023-07-29T08:21:07;6.05;;;3.03;;
72125;SDS011;59999;51.676;22.650;2023-07-29T08:23:33;5.73;;;2.87;;
72125;SDS011;59999;51.676;22.650;2023-07-29T08:26:01;6.55;;;3.08;;
72125;SDS011;59999;51.676;22.650;2023-07-29T08:28:33;5.85;;;3.03;;
72125;SDS011;59999;51.676;22.650;2023-07-29T08:31:01;6.43;;;3.22;;
72125;SDS011;59999;51.676;22.650;2023-07-29T08:33:27;6.30;;;3.00;;
72125;SDS011;59999;51.676;22.650;2023-07-29T08:35:53;5.63;;;3.03;;
72125;SDS011;59999;51.676;22.650;2023-07-29T08:38:19;5.72;;;2.90;;
72125;SDS011;59999;51.676;22.650;2023-07-29T08:46:35;5.90;;;2.60;;
72125;SDS011;59999;51.676;22.650;2023-07-29T08:49:01;6.53;;;3.20;;
72125;SDS011;59999;51.676;22.650;2023-07-29T08:51:28;5.90;;;2.40;;
72125;SDS011;59999;51.676;22.650;2023-07-29T08:53:56;6.93;;;2.78;;
72125;SDS011;59999;51.676;22.650;2023-07-29T08:56:24;5.18;;;2.40;;
72125;SDS011;59999;51.676;22.650;2023-07-29T08:58:50;5.47;;;2.40;;
72125;SDS011;59999;51.676;22.650;2023-07-29T09:01:18;6.13;;;2.80;;
72125;SDS011;59999;51.676;22.650;2023-07-29T09:03:43;6.30;;;2.22;;
72125;SDS011;59999;51.676;22.650;2023-07-29T09:06:09;8.63;;;2.80;;
72125;SDS011;59999;51.676;22.650;2023-07-29T09:08:37;5.18;;;2.33;;
72125;SDS011;59999;51.676;22.650;2023-07-29T09:11:03;5.93;;;2.60;;
72125;SDS011;59999;51.676;22.650;2023-07-29T09:13:29;5.35;;;2.28;;
72125;SDS011;59999;51.676;22.650;2023-07-29T09:15:58;4.53;;;1.90;;
72125;SDS011;59999;51.676;22.650;2023-07-29T09:18:26;4.68;;;1.92;;
72125;SDS011;59999;51.676;22.650;2023-07-29T09:20:54;5.30;;;2.17;;
72125;SDS011;59999;51.676;22.650;2023-07-29T09:23:25;4.70;;;2.30;;
72125;SDS011;59999;51.676;22.650;2023-07-29T09:25:52;5.30;;;2.20;;
72125;SDS011;59999;51.676;22.650;2023-07-29T09:28:27;5.10;;;2.47;;
72125;SDS011;59999;51.676;22.650;2023-07-29T09:30:59;4.50;;;2.22;;
72125;SDS011;59999;51.676;22.650;2023-07-29T09:33:25;5.10;;;2.17;;
72125;SDS011;59999;51.676;22.650;2023-07-29T09:35:52;5.65;;;2.55;;
72125;SDS011;59999;51.676;22.650;2023-07-29T09:38:18;4.38;;;1.90;;
72125;SDS011;59999;51.676;22.650;2023-07-29T09:40:51;5.23;;;2.30;;
72125;SDS011;59999;51.676;22.650;2023-07-29T09:43:21;5.78;;;2.53;;
72125;SDS011;59999;51.676;22.650;2023-07-29T09:45:51;4.90;;;2.33;;
72125;SDS011;59999;51.676;22.650;2023-07-29T09:48:19;6.85;;;2.05;;
72125;SDS011;59999;51.676;22.650;2023-07-29T09:50:48;4.50;;;1.88;;
72125;SDS011;59999;51.676;22.650;2023-07-29T09:53:14;4.83;;;2.37;;
72125;SDS011;59999;51.676;22.650;2023-07-29T09:55:47;5.20;;;2.60;;
72125;SDS011;59999;51.676;22.650;2023-07-29T09:58:19;5.05;;;2.40;;
72125;SDS011;59999;51.676;22.650;2023-07-29T10:00:55;4.68;;;2.22;;
72125;SDS011;59999;51.676;22.650;2023-07-29T10:03:21;4.27;;;2.00;;
72125;SDS011;59999;51.676;22.650;2023-07-29T10:05:48;4.57;;;2.08;;
72125;SDS011;59999;51.676;22.650;2023-07-29T10:08:14;5.05;;;2.30;;
72125;SDS011;59999;51.676;22.650;2023-07-29T10:10:41;4.75;;;2.10;;
72125;SDS011;59999;51.676;22.650;2023-07-29T10:13:07;5.55;;;2.28;;
72125;SDS011;59999;51.676;22.650;2023-07-29T10:15:35;4.60;;;2.23;;
72125;SDS011;59999;51.676;22.650;2023-07-29T10:18:01;6.20;;;2.03;;
72125;SDS011;59999;51.676;22.650;2023-07-29T10:20:31;4.30;;;2.20;;
72125;SDS011;59999;51.676;22.650;2023-07-29T10:22:59;4.75;;;2.13;;
72125;SDS011;59999;51.676;22.650;2023-07-29T10:25:27;6.03;;;2.17;;
72125;SDS011;59999;51.676;22.650;2023-07-29T10:28:05;4.27;;;1.90;;
72125;SDS011;59999;51.676;22.650;2023-07-29T10:30:32;5.47;;;2.28;;
72125;SDS011;59999;51.676;22.650;2023-07-29T10:32:59;4.07;;;1.80;;
72125;SDS011;59999;51.676;22.650;2023-07-29T10:35:28;4.80;;;2.20;;
72125;SDS011;59999;51.676;22.650;2023-07-29T10:37:54;6.28;;;2.47;;
72125;SDS011;59999;51.676;22.650;2023-07-29T10:40:21;4.77;;;2.40;;
72125;SDS011;59999;51.676;22.650;2023-07-29T10:43:00;7.95;;;4.38;;
72125;SDS011;59999;51.676;22.650;2023-07-29T10:45:40;4.82;;;2.30;;
72125;SDS011;59999;51.676;22.650;2023-07-29T10:48:09;5.20;;;2.05;;
72125;SDS011;59999;51.676;22.650;2023-07-29T10:50:36;4.78;;;2.10;;
72125;SDS011;59999;51.676;22.650;2023-07-29T10:53:02;4.50;;;2.27;;
72125;SDS011;59999;51.676;22.650;2023-07-29T10:55:29;4.80;;;2.40;;
72125;SDS011;59999;51.676;22.650;2023-07-29T10:58:08;5.85;;;1.92;;
72125;SDS011;59999;51.676;22.650;2023-07-29T11:00:38;4.85;;;2.20;;
72125;SDS011;59999;51.676;22.650;2023-07-29T11:03:07;5.37;;;2.40;;
72125;SDS011;59999;51.676;22.650;2023-07-29T11:05:49;4.65;;;2.30;;
72125;SDS011;59999;51.676;22.650;2023-07-29T11:08:20;4.93;;;2.25;;
72125;SDS011;59999;51.676;22.650;2023-07-29T11:13:30;4.68;;;2.13;;
72125;SDS011;59999;51.676;22.650;2023-07-29T11:15:57;5.00;;;2.23;;
72125;SDS011;59999;51.676;22.650;2023-07-29T11:18:30;5.15;;;2.53;;
72125;SDS011;59999;51.676;22.650;2023-07-29T11:20:58;5.03;;;2.58;;
72125;SDS011;59999;51.676;22.650;2023-07-29T11:23:32;4.93;;;2.08;;
72125;SDS011;59999;51.676;22.650;2023-07-29T11:26:00;5.80;;;2.55;;
72125;SDS011;59999;51.676;22.650;2023-07-29T11:28:27;5.03;;;2.50;;
72125;SDS011;59999;51.676;22.650;2023-07-29T11:30:54;5.40;;;2.20;;
72125;SDS011;59999;51.676;22.650;2023-07-29T11:33:21;4.90;;;2.45;;
72125;SDS011;59999;51.676;22.650;2023-07-29T11:35:49;5.32;;;2.67;;
72125;SDS011;59999;51.676;22.650;2023-07-29T11:38:16;4.88;;;2.42;;
72125;SDS011;59999;51.676;22.650;2023-07-29T11:40:43;6.30;;;2.93;;
72125;SDS011;59999;51.676;22.650;2023-07-29T11:43:09;5.20;;;2.47;;
72125;SDS011;59999;51.676;22.650;2023-07-29T11:45:44;5.95;;;2.90;;
72125;SDS011;59999;51.676;22.650;2023-07-29T11:48:10;5.20;;;2.35;;
72125;SDS011;59999;51.676;22.650;2023-07-29T11:50:36;6.87;;;2.50;;
72125;SDS011;59999;51.676;22.650;2023-07-29T11:53:02;4.68;;;2.45;;
72125;SDS011;59999;51.676;22.650;2023-07-29T11:55:28;5.70;;;2.50;;
72125;SDS011;59999;51.676;22.650;2023-07-29T11:57:55;6.05;;;2.72;;
72125;SDS011;59999;51.676;22.650;2023-07-29T12:00:21;5.27;;;2.50;;
72125;SDS011;59999;51.676;22.650;2023-07-29T12:02:47;5.20;;;2.63;;
72125;SDS011;59999;51.676;22.650;2023-07-29T12:05:14;4.53;;;2.20;;
72125;SDS011;59999;51.676;22.650;2023-07-29T12:07:41;5.00;;;2.65;;
72125;SDS011;59999;51.676;22.650;2023-07-29T12:10:09;5.15;;;2.90;;
72125;SDS011;59999;51.676;22.650;2023-07-29T12:12:48;5.27;;;2.70;;
72125;SDS011;59999;51.676;22.650;2023-07-29T12:15:27;5.07;;;2.47;;
72125;SDS011;59999;51.676;22.650;2023-07-29T12:17:55;5.25;;;2.55;;
72125;SDS011;59999;51.676;22.650;2023-07-29T12:20:22;5.68;;;2.55;;
72125;SDS011;59999;51.676;22.650;2023-07-29T12:22:53;5.20;;;2.60;;
72125;SDS011;59999;51.676;22.650;2023-07-29T12:25:22;4.93;;;2.33;;
72125;SDS011;59999;51.676;22.650;2023-07-29T12:27:49;4.70;;;2.38;;
72125;SDS011;59999;51.676;22.650;2023-07-29T12:30:15;4.32;;;2.30;;
72125;SDS011;59999;51.676;22.650;2023-07-29T12:32:43;4.38;;;2.20;;
72125;SDS011;59999;51.676;22.650;2023-07-29T12:35:09;5.15;;;2.65;;
72125;SDS011;59999;51.676;22.650;2023-07-29T12:37:35;5.20;;;3.03;;
72125;SDS011;59999;51.676;22.650;2023-07-29T12:40:01;5.13;;;2.63;;
72125;SDS011;59999;51.676;22.650;2023-07-29T12:42:27;6.68;;;2.60;;
72125;SDS011;59999;51.676;22.650;2023-07-29T12:44:53;5.10;;;2.93;;
72125;SDS011;59999;51.676;22.650;2023-07-29T12:47:19;5.20;;;2.55;;
72125;SDS011;59999;51.676;22.650;2023-07-29T12:49:45;5.80;;;3.20;;
72125;SDS011;59999;51.676;22.650;2023-07-29T12:52:11;5.32;;;2.90;;
72125;SDS011;59999;51.676;22.650;2023-07-29T12:54:37;7.27;;;3.00;;
72125;SDS011;59999;51.676;22.650;2023-07-29T12:57:03;5.43;;;3.03;;
72125;SDS011;59999;51.676;22.650;2023-07-29T12:59:28;6.20;;;3.40;;
72125;SDS011;59999;51.676;22.650;2023-07-29T13:01:54;5.67;;;3.23;;
72125;SDS011;59999;51.676;22.650;2023-07-29T13:04:20;5.43;;;3.10;;
72125;SDS011;59999;51.676;22.650;2023-07-29T13:06:46;6.00;;;3.60;;
72125;SDS011;59999;51.676;22.650;2023-07-29T13:09:12;6.10;;;3.27;;
72125;SDS011;59999;51.676;22.650;2023-07-29T13:11:38;5.60;;;3.30;;
72125;SDS011;59999;51.676;22.650;2023-07-29T13:14:04;6.93;;;3.80;;
72125;SDS011;59999;51.676;22.650;2023-07-29T13:16:30;6.00;;;3.50;;
72125;SDS011;59999;51.676;22.650;2023-07-29T13:18:56;6.22;;;3.70;;
72125;SDS011;59999;51.676;22.650;2023-07-29T13:21:22;5.68;;;3.40;;
72125;SDS011;59999;51.676;22.650;2023-07-29T13:23:48;5.93;;;3.53;;
72125;SDS011;59999;51.676;22.650;2023-07-29T13:26:14;7.43;;;3.47;;
72125;SDS011;59999;51.676;22.650;2023-07-29T13:28:41;6.33;;;3.83;;
72125;SDS011;59999;51.676;22.650;2023-07-29T13:31:07;6.43;;;3.75;;
72125;SDS011;59999;51.676;22.650;2023-07-29T13:33:32;6.40;;;3.78;;
72125;SDS011;59999;51.676;22.650;2023-07-29T13:36:00;5.68;;;3.40;;
72125;SDS011;59999;51.676;22.650;2023-07-29T13:38:28;7.90;;;4.25;;
72125;SDS011;59999;51.676;22.650;2023-07-29T13:40:55;5.80;;;3.60;;
72125;SDS011;59999;51.676;22.650;2023-07-29T13:43:21;6.00;;;3.65;;
72125;SDS011;59999;51.676;22.650;2023-07-29T13:45:47;5.90;;;3.90;;
72125;SDS011;59999;51.676;22.650;2023-07-29T13:48:15;6.03;;;3.70;;
72125;SDS011;59999;51.676;22.650;2023-07-29T13:50:41;7.05;;;4.20;;
72125;SDS011;59999;51.676;22.650;2023-07-29T13:53:09;6.20;;;3.57;;
72125;SDS011;59999;51.676;22.650;2023-07-29T13:55:35;6.60;;;4.20;;
72125;SDS011;59999;51.676;22.650;2023-07-29T13:58:01;6.40;;;3.85;;
72125;SDS011;59999;51.676;22.650;2023-07-29T14:00:27;6.32;;;4.05;;
72125;SDS011;59999;51.676;22.650;2023-07-29T14:02:53;6.27;;;4.20;;
72125;SDS011;59999;51.676;22.650;2023-07-29T14:05:20;6.40;;;4.03;;
72125;SDS011;59999;51.676;22.650;2023-07-29T14:07:46;7.07;;;4.63;;
72125;SDS011;59999;51.676;22.650;2023-07-29T14:10:12;7.18;;;4.68;;
72125;SDS011;59999;51.676;22.650;2023-07-29T14:12:38;7.73;;;4.70;;
72125;SDS011;59999;51.676;22.650;2023-07-29T14:15:04;7.93;;;4.38;;
72125;SDS011;59999;51.676;22.650;2023-07-29T14:17:31;6.90;;;4.50;;
72125;SDS011;59999;51.676;22.650;2023-07-29T14:19:57;7.78;;;4.55;;
72125;SDS011;59999;51.676;22.650;2023-07-29T14:22:23;6.43;;;4.50;;
72125;SDS011;59999;51.676;22.650;2023-07-29T14:24:49;6.65;;;4.20;;
72125;SDS011;59999;51.676;22.650;2023-07-29T14:27:15;7.70;;;4.70;;
72125;SDS011;59999;51.676;22.650;2023-07-29T14:29:42;6.10;;;4.27;;
72125;SDS011;59999;51.676;22.650;2023-07-29T14:32:08;6.45;;;4.35;;
72125;SDS011;59999;51.676;22.650;2023-07-29T14:34:34;6.28;;;4.30;;
72125;SDS011;59999;51.676;22.650;2023-07-29T14:37:00;6.20;;;4.37;;
72125;SDS011;59999;51.676;22.650;2023-07-29T14:39:26;6.77;;;4.77;;
72125;SDS011;59999;51.676;22.650;2023-07-29T14:41:52;7.05;;;4.43;;
72125;SDS011;59999;51.676;22.650;2023-07-29T14:44:18;6.47;;;4.60;;
72125;SDS011;59999;51.676;22.650;2023-07-29T14:46:43;5.80;;;4.20;;